ЗЦ Екатеринбург

Зональный Центр Единой Системы Организации Воздушного Движения (ЗЦ ЕС ОрВД) Екатеринбург является структурным подразделением дивизиона VATRUS сети VATSIM.

В состав ЗЦ входят РПИ Екатеринбурга и Тюмени, которые вместе покрывают воздушное пространство над территорией Уральского федерального округа Российской Федерации общей площадью более 2 млн км². Зональный центр располагается над Уральским горным хребтом от южных границ до северных морей, являясь, таким образом, соединительным звеном Европейской и Азиатской частями России.

В сети ВАТСИМ обслуживание воздушного движения над территорией ЗЦ Екатеринбург осуществляет позиция RU-WSC_FSS, позывной "Западная Сибирь-Контроль", частота 135.350.

Мы в Контакте

Лого ЗЦ Екатеринбург
Руководитель региона

Kirill Rudavin

Контакты

Инструкторы региона
Andrey Tonkachev * (Senior Student)
Anton Agaev (Instructor)
Dmitriy Bannov (Instructor)
Ivan Malygin * (Senior Student)
Ivan Skatov (Instructor)
Kirill Rudavin (Instructor)
Maxim Gerasimov (Instructor)
Включает в себя

РПИ Екатеринбург
РПИ Тюмень

Диспетчеры региона

Диспетчер Рейтинг Допуски *
Alexander Shkut Senior Student USSV_CTR *, USCC_APP, USUU_TWR, USPP_APP, USSS_APP, USCM_TWR
Andrew Zolotuhin Controller USTV_CTR
Andrey Shestakov Senior Student USTV_CTR *, USCC_APP, USPP_APP, USSS_APP, USUU_TWR, USCM_TWR, USTR_R_APP
Anton Agaev Instructor USSV_CTR, USTV_CTR
Anton Fedosin Controller USSV_CTR
Artem Smychkov Instructor USSV_CTR
Dmitriy Bannov Instructor USSV_CTR, USTV_CTR
Ivan Malygin Senior Student USSV_CTR *, USPP_APP, USUU_TWR, USCM_TWR, USSS_APP, USCC_APP
Kirill Rudavin Instructor USSV_CTR, USTV_CTR
Maxim Gerasimov Instructor USSV_CTR, USTV_CTR
Maxim Khromtsov Controller USSV_CTR
Pavel Pyterikov Senior Student USTV_CTR *
Vadim Filev Controller USSV_CTR
Aleksey Garmash Student USSS_TWR*, USSS_GND, USTR_GND
Alekzandr Orlov Student USTR_GND
Alexander Nesterov Student USSS_GND
Alexander Pervov Student 2 USTR_TWR
Alexandr Jaschinsky Student 2 USSS_TWR
Andrey Gridchin Controller USSS_APP
Andrey Tarasov Student 2 USSS_R_APP*
Andrey Tonkachev Senior Student USPP_APP, USCC_APP, USSS_APP, USUU_TWR, USCM_TWR
Artem Tsendrovsky Senior Student USSS_TWR
Daniil Nevesenko Student USSS_TWR*, USSS_GND
Den Starichenko Student USSS_GND
Denis Makosov Senior Student USTR_TWR
Egor Gorelov Student USTR_GND
Egor Nosov Student USSS_GND
Eldar Aliev Student 2 USCC_TWR, USSS_R_APP*, USPP_TWR
Igor Shitov Student 2 USSS_TWR, USRR_R_APP*, USRR_TWR, USTR_TWR
Ivan Gorkov Student USSS_GND
Ivan Zhuravlev Student 2 USSS_TWR, USRR_R_APP*, USRR_TWR, USTR_TWR
Kirill Ardatov Student 2 USSS_TWR, USDD_TWR, USTR_TWR, USTR_R_APP*
Kirill Chermeninov Student USSS_GND
Kirill Shabunin Senior Controller USSS_APP
Konstantin Norkin Student 2 USSS_TWR, USTR_R_APP*, USTR_TWR
Maxim Korobko Student 2 USSS_TWR
Mikhail Pompushko Senior Student USCM_TWR
Mikhail Romanov Student USSS_GND
Nika Avdalov Student 2 USSS_TWR, USCC_TWR, USPP_TWR, USTR_TWR
Nikita Gonjarov Student 2 USTR_TWR, USHH_TWR
Stepan Seleznev Student 2 USSS_GND
Vladislav Kepkov Student 2 USCC_TWR
Vsevolod Skryabin Student 2 USSS_TWR!!!, USTR_TWR, USRR_TWR, USMM_R_APP*

Аэропорты региона

ICAO Город Название Погода
USSS Екатеринбург Кольцово USSS 020100Z 00000MPS CAVOK 11/11 Q1014 R08L/010060 NOSIG RMK QFE740/0987
USHQ Белоярский Белоярский
USHB Берёзово Берёзово
USII Ижевск Ижевск
USKK Киров Киров
USRK Когалым Когалым
USUU Курган Курган
USCM Магнитогорск Магнитогорск USCM 020100Z 35003MPS 9999 SCT040 13/09 Q1013 R36/090060 NOSIG RMK QFE722
USMM Надым Надым
USNN Нижневартовск Нижневартовск USNN 020100Z 34004MPS 9999 BKN017 11/11 Q1001 R03/290260 NOSIG RMK QFE746
USMU Новый Уренгой Новый Уренгой
USRO Ноябрьск Ноябрьск
USHN Нягань Нягань
USPP Пермь Пермь USPP 020100Z 26002MPS CAVOK 09/08 Q1015 R21/090060 NOSIG RMK QFE750
USDA Сабетта Сабетта USDA 020100Z 01004MPS 9999 BKN018 03/03 Q1008 R04/CLRD60 NOSIG RMK QFE755/1007
USDD Салехард Салехард
USHS Советский Советский
USRR Сургут Сургут USRR 020100Z 35006MPS 320V030 CAVOK 14/07 Q1004 R07/CLRD60 NOSIG RMK QFE748
USTR Тюмень Тюмень USTR 020100Z 31003MPS 9999 BKN049 13/09 Q1011 R21/CLRD65 R30/////99 NOSIG
USHU Урай Урай
USHH Ханты-Мансийск Ханты-Мансийск USHH 020100Z 31002MPS 280V360 CAVOK 12/09 Q1008 R06/010060 NOSIG
USCC Челябинск Челябинск USCC 020100Z 32003MPS CAVOK 12/10 Q1013 R27/000060 NOSIG RMK QFE740
USHI Игрим Игрим
USDP Красноселькуп Красноселькуп
USDK Мыс Каменный Мыс Каменный
USDS Тарко-Сале Тарко-Сале